SBI8034 URSS-LTAI
Flight info
| Callsign | SBI8034 |
|---|---|
| Flight time | 1h 46m |
| Altitude | 38000 |
| Route | LAMET1D LAMET G487 ODIRA UW96 SIN UT61 BAG UP29 HISAR |
| Aircraft | A320/M-SDFGIJ1RWY/LB1 |
Departure
| Time | 2026-05-07 08:36 |
|---|---|
| Airport | Sochi International Airport (URSS) |
Arrival
| Time | 2026-05-07 10:22 |
|---|---|
| Airport | Antalya International Airport (LTAI) |
| Time | Latitude | Longitude | Altitude | Speed | Heading |
|---|---|---|---|---|---|
| 2026-05-07 08:22 | 43.44775 | 39.94246 | 65 ft | 0 kts | 335° |
| 2026-05-07 08:26 | 43.44770 | 39.94249 | 74 ft | 3 kts | 335° |
| 2026-05-07 08:26 | 43.44750 | 39.94262 | 68 ft | 3 kts | 335° |
| 2026-05-07 08:26 | 43.44734 | 39.94272 | 67 ft | 3 kts | 335° |
| 2026-05-07 08:27 | 43.44715 | 39.94285 | 68 ft | 3 kts | 335° |
| 2026-05-07 08:27 | 43.44695 | 39.94297 | 71 ft | 3 kts | 340° |
| 2026-05-07 08:27 | 43.44675 | 39.94305 | 64 ft | 3 kts | 359° |
| 2026-05-07 08:27 | 43.44658 | 39.94301 | 65 ft | 3 kts | 57° |
| 2026-05-07 08:28 | 43.44649 | 39.94277 | 67 ft | 3 kts | 65° |
| 2026-05-07 08:28 | 43.44647 | 39.94270 | 64 ft | 0 kts | 65° |
| 2026-05-07 08:31 | 43.44661 | 39.94312 | 73 ft | 11 kts | 65° |
| 2026-05-07 08:31 | 43.44693 | 39.94406 | 74 ft | 10 kts | 65° |
| 2026-05-07 08:31 | 43.44722 | 39.94490 | 75 ft | 9 kts | 65° |
| 2026-05-07 08:31 | 43.44746 | 39.94561 | 72 ft | 8 kts | 65° |
| 2026-05-07 08:32 | 43.44768 | 39.94624 | 73 ft | 7 kts | 65° |
| 2026-05-07 08:32 | 43.44793 | 39.94697 | 75 ft | 11 kts | 65° |
| 2026-05-07 08:32 | 43.44830 | 39.94808 | 73 ft | 13 kts | 65° |
| 2026-05-07 08:32 | 43.44864 | 39.94908 | 73 ft | 10 kts | 65° |
| 2026-05-07 08:33 | 43.44894 | 39.94993 | 83 ft | 11 kts | 65° |
| 2026-05-07 08:33 | 43.44933 | 39.95105 | 85 ft | 13 kts | 60° |
| 2026-05-07 08:33 | 43.44967 | 39.95197 | 87 ft | 9 kts | 65° |
| 2026-05-07 08:33 | 43.44987 | 39.95256 | 90 ft | 5 kts | 65° |
| 2026-05-07 08:34 | 43.44996 | 39.95319 | 89 ft | 9 kts | 108° |
| 2026-05-07 08:34 | 43.44956 | 39.95354 | 91 ft | 5 kts | 155° |
| 2026-05-07 08:34 | 43.44918 | 39.95376 | 89 ft | 7 kts | 165° |
| 2026-05-07 08:34 | 43.44890 | 39.95343 | 89 ft | 2 kts | 245° |
| 2026-05-07 08:35 | 43.44890 | 39.95342 | 89 ft | 0 kts | 245° |
| 2026-05-07 08:35 | 43.44823 | 39.95144 | 80 ft | 62 kts | 245° |
| 2026-05-07 08:35 | 43.44541 | 39.94318 | 70 ft | 126 kts | 245° |
| 2026-05-07 08:35 | 43.44101 | 39.93024 | 254 ft | 158 kts | 244° |
| 2026-05-07 08:36 | 43.43685 | 39.91687 | 1054 ft | 152 kts | 252° |
| 2026-05-07 08:36 | 43.43417 | 39.90280 | 1791 ft | 152 kts | 256° |
| 2026-05-07 08:36 | 43.43187 | 39.88862 | 2502 ft | 151 kts | 256° |
| 2026-05-07 08:36 | 43.42954 | 39.87448 | 3113 ft | 152 kts | 257° |
| 2026-05-07 08:37 | 43.42724 | 39.85986 | 3535 ft | 165 kts | 257° |
| 2026-05-07 08:37 | 43.42456 | 39.84359 | 3888 ft | 184 kts | 256° |
| 2026-05-07 08:37 | 43.42153 | 39.82545 | 4198 ft | 205 kts | 257° |
| 2026-05-07 08:37 | 43.41813 | 39.80508 | 4534 ft | 230 kts | 257° |
| 2026-05-07 08:38 | 43.41437 | 39.78282 | 5064 ft | 248 kts | 257° |
| 2026-05-07 08:38 | 43.41030 | 39.75899 | 5695 ft | 263 kts | 257° |
| 2026-05-07 08:38 | 43.40602 | 39.73395 | 6447 ft | 273 kts | 257° |
| 2026-05-07 08:38 | 43.40167 | 39.70827 | 7243 ft | 280 kts | 258° |
| 2026-05-07 08:39 | 43.39725 | 39.68211 | 8152 ft | 282 kts | 258° |
| 2026-05-07 08:39 | 43.39279 | 39.65574 | 9036 ft | 285 kts | 258° |
| 2026-05-07 08:39 | 43.38823 | 39.62913 | 9927 ft | 288 kts | 259° |
| 2026-05-07 08:39 | 43.38548 | 39.60125 | 10439 ft | 304 kts | 265° |
| 2026-05-07 08:40 | 43.38345 | 39.57131 | 10726 ft | 326 kts | 266° |
| 2026-05-07 08:40 | 43.38147 | 39.53923 | 11076 ft | 344 kts | 266° |
| 2026-05-07 08:40 | 43.37936 | 39.50613 | 11729 ft | 351 kts | 266° |
| 2026-05-07 08:40 | 43.37711 | 39.47246 | 12421 ft | 357 kts | 266° |
| 2026-05-07 08:41 | 43.37471 | 39.43832 | 13157 ft | 361 kts | 265° |
| 2026-05-07 08:41 | 43.37220 | 39.40373 | 13883 ft | 365 kts | 265° |
| 2026-05-07 08:41 | 43.36970 | 39.36880 | 14555 ft | 369 kts | 265° |
| 2026-05-07 08:41 | 43.36725 | 39.33402 | 15193 ft | 373 kts | 266° |
| 2026-05-07 08:42 | 43.36477 | 39.29835 | 15795 ft | 377 kts | 266° |
| 2026-05-07 08:42 | 43.36230 | 39.26224 | 16429 ft | 381 kts | 266° |
| 2026-05-07 08:42 | 43.35979 | 39.22588 | 17075 ft | 384 kts | 265° |
| 2026-05-07 08:42 | 43.35707 | 39.18913 | 17710 ft | 388 kts | 265° |
| 2026-05-07 08:43 | 43.35431 | 39.15207 | 18335 ft | 391 kts | 265° |
| 2026-05-07 08:43 | 43.35154 | 39.11464 | 18910 ft | 395 kts | 264° |
| 2026-05-07 08:43 | 43.34614 | 39.07746 | 19451 ft | 399 kts | 254° |
| 2026-05-07 08:43 | 43.33661 | 39.04140 | 20002 ft | 403 kts | 250° |
| 2026-05-07 08:44 | 43.32659 | 39.00581 | 20553 ft | 406 kts | 250° |
| 2026-05-07 08:44 | 43.31630 | 38.96921 | 21103 ft | 410 kts | 250° |
| 2026-05-07 08:44 | 43.30602 | 38.93255 | 21628 ft | 413 kts | 250° |
| 2026-05-07 08:44 | 43.29580 | 38.89608 | 22138 ft | 416 kts | 250° |
| 2026-05-07 08:45 | 43.28533 | 38.85884 | 22650 ft | 420 kts | 250° |
| 2026-05-07 08:45 | 43.27476 | 38.82138 | 23144 ft | 423 kts | 250° |
| 2026-05-07 08:45 | 43.26412 | 38.78367 | 23638 ft | 426 kts | 250° |
| 2026-05-07 08:45 | 43.25337 | 38.74570 | 24054 ft | 429 kts | 250° |
| 2026-05-07 08:46 | 43.24244 | 38.70752 | 24442 ft | 432 kts | 250° |
| 2026-05-07 08:46 | 43.23138 | 38.66909 | 24820 ft | 434 kts | 249° |
| 2026-05-07 08:46 | 43.22021 | 38.63051 | 25188 ft | 437 kts | 249° |
| 2026-05-07 08:46 | 43.20892 | 38.59167 | 25550 ft | 440 kts | 249° |
| 2026-05-07 08:47 | 43.19755 | 38.55260 | 25907 ft | 442 kts | 249° |
| 2026-05-07 08:47 | 43.18610 | 38.51326 | 26255 ft | 445 kts | 249° |
| 2026-05-07 08:47 | 43.17460 | 38.47372 | 26619 ft | 447 kts | 249° |
| 2026-05-07 08:47 | 43.16305 | 38.43408 | 26962 ft | 450 kts | 249° |
| 2026-05-07 08:48 | 43.15141 | 38.39419 | 27299 ft | 452 kts | 249° |
| 2026-05-07 08:48 | 43.13970 | 38.35408 | 27625 ft | 455 kts | 249° |
| 2026-05-07 08:48 | 43.12790 | 38.31370 | 27946 ft | 457 kts | 249° |
| 2026-05-07 08:48 | 43.11606 | 38.27318 | 28250 ft | 460 kts | 249° |
| 2026-05-07 08:49 | 43.10431 | 38.23302 | 28554 ft | 462 kts | 249° |
| 2026-05-07 08:49 | 43.09230 | 38.19203 | 28836 ft | 464 kts | 249° |
| 2026-05-07 08:49 | 43.08022 | 38.15090 | 29133 ft | 466 kts | 249° |
| 2026-05-07 08:49 | 43.06818 | 38.10961 | 29414 ft | 468 kts | 249° |
| 2026-05-07 08:50 | 43.05614 | 38.06808 | 29682 ft | 470 kts | 250° |
| 2026-05-07 08:50 | 43.04405 | 38.02633 | 29933 ft | 473 kts | 249° |
| 2026-05-07 08:50 | 43.03193 | 37.98453 | 30178 ft | 475 kts | 249° |
| 2026-05-07 08:50 | 43.01967 | 37.94251 | 30424 ft | 476 kts | 249° |
| 2026-05-07 08:51 | 43.00732 | 37.90064 | 30706 ft | 475 kts | 249° |
| 2026-05-07 08:51 | 42.99488 | 37.85877 | 30990 ft | 475 kts | 249° |
| 2026-05-07 08:51 | 42.98246 | 37.81703 | 31276 ft | 474 kts | 249° |
| 2026-05-07 08:51 | 42.97005 | 37.77537 | 31581 ft | 473 kts | 249° |
| 2026-05-07 08:52 | 42.95763 | 37.73380 | 31875 ft | 473 kts | 249° |
| 2026-05-07 08:52 | 42.94519 | 37.69223 | 32167 ft | 472 kts | 249° |
| 2026-05-07 08:52 | 42.93274 | 37.65077 | 32451 ft | 472 kts | 249° |
| 2026-05-07 08:52 | 42.92043 | 37.60985 | 32737 ft | 472 kts | 249° |
| 2026-05-07 08:53 | 42.90804 | 37.56867 | 33027 ft | 471 kts | 249° |
| 2026-05-07 08:53 | 42.89558 | 37.52731 | 33315 ft | 471 kts | 249° |
| 2026-05-07 08:53 | 42.88316 | 37.48606 | 33629 ft | 470 kts | 249° |
| 2026-05-07 08:53 | 42.87076 | 37.44487 | 33937 ft | 469 kts | 249° |
| 2026-05-07 08:54 | 42.85835 | 37.40377 | 34233 ft | 469 kts | 249° |
| 2026-05-07 08:54 | 42.84592 | 37.36268 | 34483 ft | 468 kts | 249° |
| 2026-05-07 08:54 | 42.83351 | 37.32174 | 34738 ft | 468 kts | 249° |
| 2026-05-07 08:54 | 42.82110 | 37.28082 | 35004 ft | 466 kts | 249° |
| 2026-05-07 08:55 | 42.80869 | 37.23995 | 35245 ft | 466 kts | 248° |
| 2026-05-07 08:55 | 42.79630 | 37.19929 | 35495 ft | 464 kts | 248° |
| 2026-05-07 08:55 | 42.78389 | 37.15877 | 35750 ft | 463 kts | 248° |
| 2026-05-07 08:55 | 42.77149 | 37.11840 | 35993 ft | 462 kts | 248° |
| 2026-05-07 08:56 | 42.75910 | 37.07812 | 36217 ft | 461 kts | 248° |
| 2026-05-07 08:56 | 42.74678 | 37.03809 | 36434 ft | 461 kts | 248° |
| 2026-05-07 08:56 | 42.73444 | 36.99790 | 36647 ft | 460 kts | 248° |
| 2026-05-07 08:56 | 42.72214 | 36.95775 | 36859 ft | 459 kts | 248° |
| 2026-05-07 08:57 | 42.70979 | 36.91771 | 37063 ft | 459 kts | 248° |
| 2026-05-07 08:57 | 42.69681 | 36.87810 | 37248 ft | 458 kts | 246° |
| 2026-05-07 08:57 | 42.68300 | 36.83908 | 37452 ft | 458 kts | 245° |
| 2026-05-07 08:57 | 42.66870 | 36.80050 | 37647 ft | 457 kts | 244° |
| 2026-05-07 08:58 | 42.65420 | 36.76203 | 37843 ft | 457 kts | 244° |
| 2026-05-07 08:58 | 42.63976 | 36.72365 | 38017 ft | 456 kts | 244° |
| 2026-05-07 08:58 | 42.62564 | 36.68570 | 38181 ft | 456 kts | 244° |
| 2026-05-07 08:58 | 42.61143 | 36.64706 | 38229 ft | 457 kts | 245° |
| 2026-05-07 08:59 | 42.58327 | 36.56977 | 38214 ft | 456 kts | 245° |
| 2026-05-07 08:59 | 42.55512 | 36.49262 | 38224 ft | 456 kts | 245° |
| 2026-05-07 09:00 | 42.52682 | 36.41551 | 38209 ft | 456 kts | 245° |
| 2026-05-07 09:00 | 42.49846 | 36.33859 | 38227 ft | 456 kts | 244° |
| 2026-05-07 09:01 | 42.47017 | 36.26208 | 38216 ft | 457 kts | 245° |
| 2026-05-07 09:01 | 42.44167 | 36.18519 | 38217 ft | 457 kts | 244° |
| 2026-05-07 09:02 | 42.41310 | 36.10828 | 38219 ft | 457 kts | 245° |
| 2026-05-07 09:02 | 42.38452 | 36.03144 | 38227 ft | 457 kts | 244° |
| 2026-05-07 09:03 | 42.35590 | 35.95471 | 38217 ft | 457 kts | 245° |
| 2026-05-07 09:03 | 42.32720 | 35.87811 | 38217 ft | 456 kts | 244° |
| 2026-05-07 09:04 | 42.29842 | 35.80164 | 38220 ft | 456 kts | 244° |
| 2026-05-07 09:04 | 42.26964 | 35.72532 | 38220 ft | 456 kts | 244° |
| 2026-05-07 09:05 | 42.24081 | 35.64895 | 38213 ft | 456 kts | 245° |
| 2026-05-07 09:05 | 42.21224 | 35.57317 | 38214 ft | 455 kts | 245° |
| 2026-05-07 09:06 | 42.18351 | 35.49724 | 38216 ft | 455 kts | 245° |
| 2026-05-07 09:06 | 42.15466 | 35.42151 | 38202 ft | 455 kts | 245° |
| 2026-05-07 09:07 | 42.12577 | 35.34573 | 38193 ft | 455 kts | 245° |
| 2026-05-07 09:07 | 42.09697 | 35.26997 | 38200 ft | 454 kts | 245° |
| 2026-05-07 09:08 | 42.06814 | 35.19422 | 38201 ft | 454 kts | 245° |
| 2026-05-07 09:08 | 42.03926 | 35.11861 | 38186 ft | 454 kts | 244° |
| 2026-05-07 09:09 | 42.00163 | 35.05030 | 38189 ft | 459 kts | 225° |
| 2026-05-07 09:09 | 41.95388 | 34.99308 | 38184 ft | 460 kts | 224° |
| 2026-05-07 09:10 | 41.90605 | 34.93583 | 38170 ft | 460 kts | 224° |
| 2026-05-07 09:10 | 41.85829 | 34.87858 | 38169 ft | 460 kts | 224° |
| 2026-05-07 09:11 | 41.81057 | 34.82150 | 38166 ft | 461 kts | 224° |
| 2026-05-07 09:11 | 41.76299 | 34.76478 | 38168 ft | 461 kts | 224° |
| 2026-05-07 09:12 | 41.71503 | 34.70772 | 38158 ft | 461 kts | 224° |
| 2026-05-07 09:12 | 41.66696 | 34.65076 | 38161 ft | 461 kts | 224° |
| 2026-05-07 09:13 | 41.61886 | 34.59390 | 38159 ft | 462 kts | 224° |
| 2026-05-07 09:13 | 41.57072 | 34.53709 | 38149 ft | 462 kts | 224° |
| 2026-05-07 09:14 | 41.52269 | 34.48009 | 38152 ft | 462 kts | 225° |
| 2026-05-07 09:14 | 41.47479 | 34.42287 | 38157 ft | 462 kts | 224° |
| 2026-05-07 09:15 | 41.42673 | 34.36580 | 38142 ft | 463 kts | 225° |
| 2026-05-07 09:15 | 41.37866 | 34.30901 | 38149 ft | 463 kts | 224° |
| 2026-05-07 09:16 | 41.33071 | 34.25255 | 38159 ft | 463 kts | 225° |
| 2026-05-07 09:16 | 41.28262 | 34.19603 | 38180 ft | 463 kts | 224° |
| 2026-05-07 09:17 | 41.23435 | 34.13951 | 38186 ft | 462 kts | 224° |
| 2026-05-07 09:17 | 41.18606 | 34.08314 | 38188 ft | 462 kts | 224° |
| 2026-05-07 09:18 | 41.14593 | 34.03636 | 38176 ft | 462 kts | 224° |
| 2026-05-07 09:18 | 41.09762 | 33.98012 | 38176 ft | 462 kts | 224° |
| 2026-05-07 09:19 | 41.04947 | 33.92405 | 38176 ft | 462 kts | 224° |
| 2026-05-07 09:19 | 41.00105 | 33.86794 | 38170 ft | 462 kts | 224° |
| 2026-05-07 09:20 | 40.95266 | 33.81198 | 38175 ft | 462 kts | 224° |
| 2026-05-07 09:20 | 40.90423 | 33.75604 | 38177 ft | 462 kts | 224° |
| 2026-05-07 09:21 | 40.85579 | 33.70020 | 38177 ft | 462 kts | 225° |
| 2026-05-07 09:21 | 40.80752 | 33.64464 | 38192 ft | 462 kts | 225° |
| 2026-05-07 09:22 | 40.75911 | 33.58900 | 38190 ft | 461 kts | 224° |
| 2026-05-07 09:22 | 40.71058 | 33.53351 | 38180 ft | 461 kts | 224° |
| 2026-05-07 09:23 | 40.66214 | 33.47812 | 38185 ft | 461 kts | 224° |
| 2026-05-07 09:23 | 40.61366 | 33.42276 | 38190 ft | 461 kts | 224° |
| 2026-05-07 09:24 | 40.56516 | 33.36753 | 38192 ft | 461 kts | 224° |
| 2026-05-07 09:24 | 40.51674 | 33.31254 | 38199 ft | 461 kts | 224° |
| 2026-05-07 09:25 | 40.46820 | 33.25756 | 38184 ft | 461 kts | 224° |
| 2026-05-07 09:25 | 40.42000 | 33.20302 | 38200 ft | 460 kts | 224° |
| 2026-05-07 09:26 | 40.37155 | 33.14821 | 38215 ft | 460 kts | 224° |
| 2026-05-07 09:26 | 40.32303 | 33.09348 | 38205 ft | 460 kts | 225° |
| 2026-05-07 09:27 | 40.27453 | 33.03891 | 38221 ft | 459 kts | 225° |
| 2026-05-07 09:28 | 40.20173 | 32.95721 | 38230 ft | 459 kts | 225° |
| 2026-05-07 09:28 | 40.15327 | 32.90290 | 38227 ft | 459 kts | 225° |
| 2026-05-07 09:29 | 40.10477 | 32.84876 | 38226 ft | 458 kts | 225° |
| 2026-05-07 09:29 | 40.05359 | 32.79878 | 38215 ft | 464 kts | 212° |
| 2026-05-07 09:30 | 39.99596 | 32.76009 | 38215 ft | 465 kts | 211° |
| 2026-05-07 09:30 | 39.93831 | 32.72163 | 38213 ft | 465 kts | 211° |
| 2026-05-07 09:31 | 39.88073 | 32.68302 | 38213 ft | 466 kts | 211° |
| 2026-05-07 09:31 | 39.82312 | 32.64441 | 38214 ft | 466 kts | 211° |
| 2026-05-07 09:32 | 39.76550 | 32.60597 | 38205 ft | 466 kts | 211° |
| 2026-05-07 09:32 | 39.70780 | 32.56761 | 38199 ft | 466 kts | 211° |
| 2026-05-07 09:33 | 39.65011 | 32.52935 | 38206 ft | 466 kts | 211° |
| 2026-05-07 09:33 | 39.59273 | 32.49134 | 38217 ft | 466 kts | 211° |
| 2026-05-07 09:34 | 39.53499 | 32.45308 | 38215 ft | 465 kts | 211° |
| 2026-05-07 09:34 | 39.47732 | 32.41500 | 38221 ft | 465 kts | 211° |
| 2026-05-07 09:35 | 39.41963 | 32.37703 | 38209 ft | 465 kts | 211° |
| 2026-05-07 09:35 | 39.36202 | 32.33909 | 38204 ft | 464 kts | 211° |
| 2026-05-07 09:36 | 39.30440 | 32.30144 | 38214 ft | 464 kts | 211° |
| 2026-05-07 09:36 | 39.24707 | 32.26417 | 38218 ft | 464 kts | 211° |
| 2026-05-07 09:37 | 39.18957 | 32.22693 | 38219 ft | 463 kts | 211° |
| 2026-05-07 09:37 | 39.13199 | 32.18958 | 38221 ft | 463 kts | 211° |
| 2026-05-07 09:38 | 39.07446 | 32.15227 | 38209 ft | 463 kts | 211° |
| 2026-05-07 09:38 | 39.01698 | 32.11511 | 38220 ft | 462 kts | 211° |
| 2026-05-07 09:39 | 38.95954 | 32.07800 | 38225 ft | 462 kts | 211° |
| 2026-05-07 09:39 | 38.90210 | 32.04097 | 38131 ft | 462 kts | 211° |
| 2026-05-07 09:39 | 38.87346 | 32.02258 | 37844 ft | 456 kts | 211° |
| 2026-05-07 09:40 | 38.84524 | 32.00454 | 37569 ft | 451 kts | 212° |
| 2026-05-07 09:40 | 38.81717 | 31.98655 | 37305 ft | 450 kts | 212° |
| 2026-05-07 09:40 | 38.78917 | 31.96858 | 37041 ft | 450 kts | 212° |
| 2026-05-07 09:40 | 38.76121 | 31.95061 | 36772 ft | 451 kts | 212° |
| 2026-05-07 09:41 | 38.73348 | 31.93279 | 36521 ft | 452 kts | 212° |
| 2026-05-07 09:41 | 38.70529 | 31.91473 | 36267 ft | 454 kts | 212° |
| 2026-05-07 09:41 | 38.67699 | 31.89666 | 36016 ft | 455 kts | 212° |
| 2026-05-07 09:41 | 38.64864 | 31.87859 | 35706 ft | 454 kts | 212° |
| 2026-05-07 09:42 | 38.62043 | 31.86061 | 35129 ft | 452 kts | 212° |
| 2026-05-07 09:42 | 38.59231 | 31.84267 | 34541 ft | 451 kts | 212° |
| 2026-05-07 09:42 | 38.56420 | 31.82479 | 33920 ft | 451 kts | 213° |
| 2026-05-07 09:42 | 38.53614 | 31.80695 | 33316 ft | 449 kts | 213° |
| 2026-05-07 09:43 | 38.50822 | 31.78921 | 32705 ft | 447 kts | 213° |
| 2026-05-07 09:43 | 38.48043 | 31.77154 | 32119 ft | 446 kts | 213° |
| 2026-05-07 09:43 | 38.45271 | 31.75393 | 31525 ft | 445 kts | 213° |
| 2026-05-07 09:43 | 38.42503 | 31.73638 | 30938 ft | 444 kts | 213° |
| 2026-05-07 09:44 | 38.39741 | 31.71888 | 30347 ft | 443 kts | 213° |
| 2026-05-07 09:44 | 38.36986 | 31.70145 | 29710 ft | 441 kts | 213° |
| 2026-05-07 09:44 | 38.34247 | 31.68415 | 29146 ft | 438 kts | 212° |
| 2026-05-07 09:44 | 38.31586 | 31.66734 | 28585 ft | 435 kts | 212° |
| 2026-05-07 09:45 | 38.28882 | 31.65029 | 28028 ft | 432 kts | 212° |
| 2026-05-07 09:45 | 38.26196 | 31.63339 | 27472 ft | 429 kts | 212° |
| 2026-05-07 09:45 | 38.23529 | 31.61662 | 26936 ft | 426 kts | 212° |
| 2026-05-07 09:45 | 38.20882 | 31.59995 | 26406 ft | 424 kts | 212° |
| 2026-05-07 09:46 | 38.18287 | 31.58359 | 25909 ft | 421 kts | 212° |
| 2026-05-07 09:46 | 38.15670 | 31.56712 | 25422 ft | 418 kts | 211° |
| 2026-05-07 09:46 | 38.13093 | 31.55127 | 25278 ft | 407 kts | 207° |
| 2026-05-07 09:46 | 38.10390 | 31.54129 | 25107 ft | 403 kts | 193° |
| 2026-05-07 09:47 | 38.07607 | 31.53847 | 24856 ft | 398 kts | 186° |
| 2026-05-07 09:47 | 38.04840 | 31.53675 | 24772 ft | 397 kts | 186° |
| 2026-05-07 09:47 | 38.02084 | 31.53506 | 24677 ft | 397 kts | 186° |
| 2026-05-07 09:47 | 37.99328 | 31.53336 | 24522 ft | 396 kts | 186° |
| 2026-05-07 09:48 | 37.96585 | 31.53165 | 24364 ft | 394 kts | 186° |
| 2026-05-07 09:48 | 37.93838 | 31.52993 | 24208 ft | 393 kts | 186° |
| 2026-05-07 09:48 | 37.91108 | 31.52823 | 24049 ft | 392 kts | 186° |
| 2026-05-07 09:48 | 37.88386 | 31.52651 | 23889 ft | 391 kts | 186° |
| 2026-05-07 09:49 | 37.85669 | 31.52481 | 23727 ft | 390 kts | 186° |
| 2026-05-07 09:49 | 37.82958 | 31.52311 | 23567 ft | 389 kts | 186° |
| 2026-05-07 09:49 | 37.80259 | 31.52138 | 23406 ft | 387 kts | 186° |
| 2026-05-07 09:49 | 37.77573 | 31.51966 | 23262 ft | 386 kts | 186° |
| 2026-05-07 09:50 | 37.74900 | 31.51718 | 23111 ft | 384 kts | 188° |
| 2026-05-07 09:50 | 37.72250 | 31.51371 | 22958 ft | 382 kts | 190° |
| 2026-05-07 09:50 | 37.69653 | 31.50976 | 22786 ft | 381 kts | 191° |
| 2026-05-07 09:50 | 37.67031 | 31.50561 | 22648 ft | 379 kts | 191° |
| 2026-05-07 09:51 | 37.64414 | 31.50151 | 22495 ft | 378 kts | 190° |
| 2026-05-07 09:51 | 37.61809 | 31.49758 | 22344 ft | 377 kts | 190° |
| 2026-05-07 09:51 | 37.59213 | 31.49383 | 22189 ft | 375 kts | 189° |
| 2026-05-07 09:51 | 37.56631 | 31.49021 | 21789 ft | 372 kts | 189° |
| 2026-05-07 09:52 | 37.54115 | 31.48444 | 21396 ft | 363 kts | 203° |
| 2026-05-07 09:52 | 37.51902 | 31.47044 | 20982 ft | 350 kts | 221° |
| 2026-05-07 09:52 | 37.50189 | 31.44966 | 20328 ft | 337 kts | 238° |
| 2026-05-07 09:52 | 37.49091 | 31.42420 | 19715 ft | 328 kts | 255° |
| 2026-05-07 09:53 | 37.48612 | 31.39654 | 19165 ft | 320 kts | 267° |
| 2026-05-07 09:53 | 37.48370 | 31.36870 | 18601 ft | 320 kts | 267° |
| 2026-05-07 09:53 | 37.48121 | 31.34091 | 18031 ft | 319 kts | 266° |
| 2026-05-07 09:53 | 37.47868 | 31.31326 | 17477 ft | 317 kts | 266° |
| 2026-05-07 09:54 | 37.47611 | 31.28575 | 16943 ft | 315 kts | 266° |
| 2026-05-07 09:54 | 37.47358 | 31.25846 | 16459 ft | 314 kts | 266° |
| 2026-05-07 09:54 | 37.47108 | 31.23125 | 16090 ft | 311 kts | 267° |
| 2026-05-07 09:54 | 37.46861 | 31.20432 | 15575 ft | 308 kts | 267° |
| 2026-05-07 09:55 | 37.46614 | 31.17763 | 15063 ft | 306 kts | 267° |
| 2026-05-07 09:55 | 37.46371 | 31.15142 | 14593 ft | 304 kts | 266° |
| 2026-05-07 09:55 | 37.46128 | 31.12503 | 14085 ft | 303 kts | 267° |
| 2026-05-07 09:55 | 37.45886 | 31.09878 | 13549 ft | 301 kts | 266° |
| 2026-05-07 09:56 | 37.45646 | 31.07272 | 13014 ft | 299 kts | 266° |
| 2026-05-07 09:56 | 37.45406 | 31.04685 | 12485 ft | 297 kts | 266° |
| 2026-05-07 09:56 | 37.45163 | 31.02109 | 11966 ft | 295 kts | 266° |
| 2026-05-07 09:56 | 37.44921 | 30.99555 | 11447 ft | 293 kts | 265° |
| 2026-05-07 09:57 | 37.44689 | 30.97110 | 10942 ft | 292 kts | 265° |
| 2026-05-07 09:57 | 37.44188 | 30.94648 | 10429 ft | 292 kts | 246° |
| 2026-05-07 09:57 | 37.43031 | 30.92560 | 9931 ft | 293 kts | 225° |
| 2026-05-07 09:57 | 37.41348 | 30.91129 | 9411 ft | 293 kts | 204° |
| 2026-05-07 09:58 | 37.39427 | 30.90283 | 8862 ft | 292 kts | 199° |
| 2026-05-07 09:58 | 37.37557 | 30.89498 | 8711 ft | 275 kts | 199° |
| 2026-05-07 09:58 | 37.35795 | 30.88756 | 8579 ft | 259 kts | 200° |
| 2026-05-07 09:58 | 37.34135 | 30.88051 | 8391 ft | 247 kts | 200° |
| 2026-05-07 09:59 | 37.32525 | 30.87363 | 8027 ft | 243 kts | 200° |
| 2026-05-07 09:59 | 37.30933 | 30.86692 | 7626 ft | 240 kts | 197° |
| 2026-05-07 09:59 | 37.29315 | 30.86242 | 7210 ft | 238 kts | 192° |
| 2026-05-07 09:59 | 37.27714 | 30.85827 | 6801 ft | 237 kts | 193° |
| 2026-05-07 10:00 | 37.26105 | 30.85408 | 6411 ft | 235 kts | 192° |
| 2026-05-07 10:00 | 37.24510 | 30.84991 | 6031 ft | 232 kts | 192° |
| 2026-05-07 10:00 | 37.22935 | 30.84580 | 5691 ft | 230 kts | 192° |
| 2026-05-07 10:00 | 37.21378 | 30.84174 | 5236 ft | 228 kts | 192° |
| 2026-05-07 10:01 | 37.19820 | 30.83768 | 4765 ft | 230 kts | 193° |
| 2026-05-07 10:01 | 37.18268 | 30.83360 | 4543 ft | 225 kts | 194° |
| 2026-05-07 10:01 | 37.16724 | 30.82982 | 4508 ft | 225 kts | 189° |
| 2026-05-07 10:01 | 37.15223 | 30.82735 | 4504 ft | 212 kts | 187° |
| 2026-05-07 10:02 | 37.13781 | 30.82533 | 4420 ft | 207 kts | 187° |
| 2026-05-07 10:02 | 37.12356 | 30.82337 | 4193 ft | 206 kts | 187° |
| 2026-05-07 10:02 | 37.10933 | 30.82141 | 3934 ft | 205 kts | 186° |
| 2026-05-07 10:02 | 37.09506 | 30.81944 | 3662 ft | 208 kts | 187° |
| 2026-05-07 10:03 | 37.08062 | 30.81745 | 3396 ft | 210 kts | 187° |
| 2026-05-07 10:03 | 37.06598 | 30.81544 | 3101 ft | 213 kts | 187° |
| 2026-05-07 10:03 | 37.05125 | 30.81341 | 2858 ft | 212 kts | 186° |
| 2026-05-07 10:03 | 37.03675 | 30.81141 | 2545 ft | 207 kts | 186° |
| 2026-05-07 10:04 | 37.02287 | 30.80950 | 2274 ft | 194 kts | 186° |
| 2026-05-07 10:04 | 37.00981 | 30.80771 | 2028 ft | 186 kts | 186° |
| 2026-05-07 10:04 | 36.99725 | 30.80598 | 1785 ft | 174 kts | 186° |
| 2026-05-07 10:04 | 36.98575 | 30.80440 | 1574 ft | 162 kts | 187° |
| 2026-05-07 10:05 | 36.97491 | 30.80292 | 1371 ft | 151 kts | 187° |
| 2026-05-07 10:05 | 36.96469 | 30.80151 | 1175 ft | 145 kts | 187° |
| 2026-05-07 10:05 | 36.95480 | 30.80016 | 999 ft | 141 kts | 187° |
| 2026-05-07 10:05 | 36.94522 | 30.79883 | 818 ft | 136 kts | 186° |
| 2026-05-07 10:06 | 36.93906 | 30.79799 | 693 ft | 132 kts | 185° |
| 2026-05-07 10:06 | 36.92994 | 30.79675 | 517 ft | 132 kts | 184° |
| 2026-05-07 10:06 | 36.91792 | 30.79509 | 277 ft | 130 kts | 185° |
| 2026-05-07 10:06 | 36.90927 | 30.79393 | 201 ft | 114 kts | 185° |
| 2026-05-07 10:07 | 36.90033 | 30.79278 | 501 ft | 143 kts | 186° |
| 2026-05-07 10:07 | 36.89335 | 30.79175 | 1017 ft | 153 kts | 186° |
| 2026-05-07 10:07 | 36.88279 | 30.79042 | 1776 ft | 152 kts | 186° |
| 2026-05-07 10:07 | 36.87251 | 30.78693 | 2383 ft | 155 kts | 214° |
| 2026-05-07 10:08 | 36.86390 | 30.77937 | 3074 ft | 152 kts | 217° |
| 2026-05-07 10:08 | 36.85540 | 30.77209 | 3562 ft | 155 kts | 217° |
| 2026-05-07 10:08 | 36.84547 | 30.76459 | 3830 ft | 179 kts | 213° |
| 2026-05-07 10:08 | 36.83684 | 30.75237 | 4025 ft | 202 kts | 255° |
| 2026-05-07 10:09 | 36.83614 | 30.73433 | 4532 ft | 214 kts | 278° |
| 2026-05-07 10:09 | 36.83819 | 30.71589 | 5357 ft | 215 kts | 282° |
| 2026-05-07 10:09 | 36.84066 | 30.69734 | 6218 ft | 218 kts | 281° |
| 2026-05-07 10:09 | 36.84305 | 30.67861 | 7058 ft | 220 kts | 281° |
| 2026-05-07 10:10 | 36.84589 | 30.65970 | 7738 ft | 225 kts | 292° |
| 2026-05-07 10:10 | 36.85535 | 30.64483 | 7950 ft | 221 kts | 332° |
| 2026-05-07 10:10 | 36.87006 | 30.63996 | 8005 ft | 221 kts | 355° |
| 2026-05-07 10:10 | 36.88550 | 30.63998 | 8015 ft | 222 kts | 1° |
| 2026-05-07 10:11 | 36.90092 | 30.64115 | 8014 ft | 222 kts | 2° |
| 2026-05-07 10:11 | 36.91637 | 30.64226 | 8012 ft | 223 kts | 1° |
| 2026-05-07 10:11 | 36.93184 | 30.64301 | 8008 ft | 223 kts | 0° |
| 2026-05-07 10:11 | 36.94737 | 30.64342 | 8011 ft | 223 kts | 360° |
| 2026-05-07 10:12 | 36.96284 | 30.64358 | 8008 ft | 223 kts | 359° |
| 2026-05-07 10:12 | 36.97836 | 30.64355 | 8007 ft | 223 kts | 359° |
| 2026-05-07 10:12 | 36.99382 | 30.64340 | 8009 ft | 222 kts | 358° |
| 2026-05-07 10:12 | 37.00932 | 30.64316 | 8011 ft | 223 kts | 358° |
| 2026-05-07 10:13 | 37.02478 | 30.64290 | 8007 ft | 222 kts | 358° |
| 2026-05-07 10:13 | 37.04022 | 30.64263 | 8003 ft | 222 kts | 358° |
| 2026-05-07 10:13 | 37.05566 | 30.64233 | 8009 ft | 222 kts | 358° |
| 2026-05-07 10:13 | 37.07112 | 30.64201 | 8009 ft | 222 kts | 359° |
| 2026-05-07 10:14 | 37.08654 | 30.64353 | 7972 ft | 222 kts | 5° |
| 2026-05-07 10:14 | 37.10181 | 30.64569 | 7683 ft | 221 kts | 9° |
| 2026-05-07 10:14 | 37.11553 | 30.65377 | 7370 ft | 222 kts | 42° |
| 2026-05-07 10:14 | 37.12412 | 30.66984 | 7065 ft | 225 kts | 63° |
| 2026-05-07 10:15 | 37.13040 | 30.68778 | 6765 ft | 224 kts | 65° |
| 2026-05-07 10:15 | 37.13635 | 30.70575 | 6437 ft | 223 kts | 66° |
| 2026-05-07 10:15 | 37.14225 | 30.72366 | 6188 ft | 222 kts | 66° |
| 2026-05-07 10:15 | 37.14808 | 30.74153 | 5880 ft | 221 kts | 66° |
| 2026-05-07 10:16 | 37.15389 | 30.75938 | 5588 ft | 221 kts | 66° |
| 2026-05-07 10:16 | 37.15928 | 30.77737 | 5290 ft | 221 kts | 77° |
| 2026-05-07 10:16 | 37.15820 | 30.79634 | 4981 ft | 222 kts | 112° |
| 2026-05-07 10:16 | 37.15039 | 30.81312 | 4643 ft | 225 kts | 124° |
| 2026-05-07 10:17 | 37.13961 | 30.82697 | 4428 ft | 223 kts | 154° |
| 2026-05-07 10:17 | 37.12493 | 30.82937 | 4216 ft | 218 kts | 197° |
| 2026-05-07 10:17 | 37.11107 | 30.82212 | 3943 ft | 213 kts | 201° |
| 2026-05-07 10:17 | 37.09677 | 30.81911 | 3698 ft | 206 kts | 185° |
| 2026-05-07 10:18 | 37.08280 | 30.81759 | 3462 ft | 197 kts | 187° |
| 2026-05-07 10:18 | 37.06925 | 30.81585 | 3167 ft | 195 kts | 187° |
| 2026-05-07 10:18 | 37.05577 | 30.81402 | 2901 ft | 194 kts | 187° |
| 2026-05-07 10:18 | 37.04235 | 30.81218 | 2647 ft | 194 kts | 186° |
| 2026-05-07 10:19 | 37.02899 | 30.81034 | 2394 ft | 193 kts | 186° |
| 2026-05-07 10:19 | 37.01585 | 30.80854 | 2145 ft | 187 kts | 187° |
| 2026-05-07 10:19 | 37.00310 | 30.80678 | 1890 ft | 180 kts | 187° |
| 2026-05-07 10:19 | 36.99141 | 30.80518 | 1691 ft | 163 kts | 187° |
| 2026-05-07 10:20 | 36.98039 | 30.80367 | 1473 ft | 154 kts | 187° |
| 2026-05-07 10:20 | 36.97009 | 30.80225 | 1282 ft | 145 kts | 186° |
| 2026-05-07 10:20 | 36.96027 | 30.80089 | 1099 ft | 140 kts | 186° |
| 2026-05-07 10:20 | 36.95078 | 30.79958 | 931 ft | 134 kts | 186° |
| 2026-05-07 10:21 | 36.94165 | 30.79835 | 729 ft | 131 kts | 186° |
| 2026-05-07 10:21 | 36.93254 | 30.79711 | 558 ft | 132 kts | 184° |
| 2026-05-07 10:21 | 36.92357 | 30.79587 | 384 ft | 131 kts | 186° |
| 2026-05-07 10:21 | 36.91461 | 30.79465 | 220 ft | 129 kts | 185° |
| 2026-05-07 10:22 | 36.90653 | 30.79357 | 196 ft | 96 kts | 186° |
| 2026-05-07 10:22 | 36.90159 | 30.79289 | 190 ft | 46 kts | 186° |
| 2026-05-07 10:22 | 36.89871 | 30.79251 | 203 ft | 38 kts | 186° |
| 2026-05-07 10:22 | 36.89660 | 30.79223 | 200 ft | 22 kts | 184° |
| 2026-05-07 10:23 | 36.89535 | 30.79263 | 197 ft | 16 kts | 156° |
| 2026-05-07 10:23 | 36.89453 | 30.79308 | 198 ft | 9 kts | 157° |
| 2026-05-07 10:23 | 36.89393 | 30.79340 | 195 ft | 11 kts | 157° |
| 2026-05-07 10:23 | 36.89345 | 30.79376 | 199 ft | 5 kts | 102° |
| 2026-05-07 10:24 | 36.89374 | 30.79400 | 197 ft | 7 kts | 9° |
| 2026-05-07 10:24 | 36.89422 | 30.79406 | 202 ft | 7 kts | 6° |
| 2026-05-07 10:24 | 36.89465 | 30.79412 | 192 ft | 6 kts | 6° |
| 2026-05-07 10:24 | 36.89503 | 30.79418 | 197 ft | 5 kts | 6° |
| 2026-05-07 10:25 | 36.89545 | 30.79423 | 207 ft | 9 kts | 6° |
| 2026-05-07 10:25 | 36.89621 | 30.79434 | 206 ft | 8 kts | 6° |
| 2026-05-07 10:25 | 36.89662 | 30.79472 | 198 ft | 7 kts | 71° |
| 2026-05-07 10:25 | 36.89660 | 30.79531 | 192 ft | 6 kts | 96° |
| 2026-05-07 10:26 | 36.89655 | 30.79581 | 192 ft | 5 kts | 96° |
| 2026-05-07 10:26 | 36.89651 | 30.79626 | 192 ft | 7 kts | 96° |
| 2026-05-07 10:26 | 36.89645 | 30.79691 | 192 ft | 7 kts | 96° |
| 2026-05-07 10:26 | 36.89640 | 30.79748 | 192 ft | 6 kts | 96° |
| 2026-05-07 10:27 | 36.89634 | 30.79822 | 206 ft | 9 kts | 96° |
| 2026-05-07 10:27 | 36.89627 | 30.79897 | 192 ft | 8 kts | 96° |
| 2026-05-07 10:27 | 36.89621 | 30.79963 | 192 ft | 7 kts | 96° |
| 2026-05-07 10:27 | 36.89616 | 30.80022 | 197 ft | 6 kts | 96° |
| 2026-05-07 10:28 | 36.89609 | 30.80097 | 192 ft | 10 kts | 96° |
| 2026-05-07 10:28 | 36.89602 | 30.80175 | 192 ft | 8 kts | 96° |
| 2026-05-07 10:28 | 36.89596 | 30.80243 | 192 ft | 7 kts | 96° |
| 2026-05-07 10:28 | 36.89612 | 30.80296 | 203 ft | 6 kts | 39° |
| 2026-05-07 10:29 | 36.89652 | 30.80308 | 202 ft | 6 kts | 6° |
| 2026-05-07 10:29 | 36.89689 | 30.80313 | 192 ft | 5 kts | 7° |
| 2026-05-07 10:29 | 36.89721 | 30.80318 | 204 ft | 4 kts | 6° |
| 2026-05-07 10:30 | 36.89778 | 30.80326 | 192 ft | 4 kts | 7° |
| 2026-05-07 10:30 | 36.89798 | 30.80315 | 196 ft | 3 kts | 313° |
| 2026-05-07 10:30 | 36.89806 | 30.80296 | 201 ft | 2 kts | 294° |
| 2026-05-07 10:30 | 36.89811 | 30.80280 | 201 ft | 2 kts | 292° |
| 2026-05-07 10:31 | 36.89815 | 30.80269 | 198 ft | 1 kts | 292° |
| 2026-05-07 10:31 | 36.89821 | 30.80250 | 196 ft | 1 kts | 291° |
| 2026-05-07 10:31 | 36.89823 | 30.80243 | 205 ft | 0 kts | 291° |